sensor_id;sensor_type;location;lat;lon;timestamp;P1;P2;P0
47081;PMS5003;33066;49.296;14.470;2023-08-06T00:01:25;8;8;
47081;PMS5003;33066;49.296;14.470;2023-08-06T00:03:50;8;6;
47081;PMS5003;33066;49.296;14.470;2023-08-06T00:06:15;6;6;
47081;PMS5003;33066;49.296;14.470;2023-08-06T00:08:41;8;6;
47081;PMS5003;33066;49.296;14.470;2023-08-06T00:11:05;6;6;
47081;PMS5003;33066;49.296;14.470;2023-08-06T00:13:31;6;6;
47081;PMS5003;33066;49.296;14.470;2023-08-06T00:15:56;5;5;
47081;PMS5003;33066;49.296;14.470;2023-08-06T00:18:21;5;5;
47081;PMS5003;33066;49.296;14.470;2023-08-06T00:20:46;7;6;
47081;PMS5003;33066;49.296;14.470;2023-08-06T00:23:11;4;4;
47081;PMS5003;33066;49.296;14.470;2023-08-06T00:25:36;7;6;
47081;PMS5003;33066;49.296;14.470;2023-08-06T00:28:01;4;4;
47081;PMS5003;33066;49.296;14.470;2023-08-06T00:30:26;5;4;
47081;PMS5003;33066;49.296;14.470;2023-08-06T00:32:51;6;6;
47081;PMS5003;33066;49.296;14.470;2023-08-06T00:35:16;5;5;
47081;PMS5003;33066;49.296;14.470;2023-08-06T00:37:41;6;5;
47081;PMS5003;33066;49.296;14.470;2023-08-06T00:40:07;6;6;
47081;PMS5003;33066;49.296;14.470;2023-08-06T00:42:31;8;5;
47081;PMS5003;33066;49.296;14.470;2023-08-06T00:44:56;4;4;
47081;PMS5003;33066;49.296;14.470;2023-08-06T00:47:21;3;3;
47081;PMS5003;33066;49.296;14.470;2023-08-06T00:49:47;5;5;
47081;PMS5003;33066;49.296;14.470;2023-08-06T00:52:11;6;5;
47081;PMS5003;33066;49.296;14.470;2023-08-06T00:54:37;4;4;
47081;PMS5003;33066;49.296;14.470;2023-08-06T00:57:02;4;4;
47081;PMS5003;33066;49.296;14.470;2023-08-06T00:59:27;4;4;
47081;PMS5003;33066;49.296;14.470;2023-08-06T01:01:52;4;4;
47081;PMS5003;33066;49.296;14.470;2023-08-06T01:04:17;6;5;
47081;PMS5003;33066;49.296;14.470;2023-08-06T01:06:43;2;2;
47081;PMS5003;33066;49.296;14.470;2023-08-06T01:09:09;4;4;
47081;PMS5003;33066;49.296;14.470;2023-08-06T01:11:33;6;5;
47081;PMS5003;33066;49.296;14.470;2023-08-06T01:13:58;4;4;
47081;PMS5003;33066;49.296;14.470;2023-08-06T01:16:22;5;5;
47081;PMS5003;33066;49.296;14.470;2023-08-06T01:18:47;4;4;
47081;PMS5003;33066;49.296;14.470;2023-08-06T01:21:12;6;6;
47081;PMS5003;33066;49.296;14.470;2023-08-06T01:23:37;4;4;
47081;PMS5003;33066;49.296;14.470;2023-08-06T01:26:04;4;4;
47081;PMS5003;33066;49.296;14.470;2023-08-06T01:28:37;6;6;
47081;PMS5003;33066;49.296;14.470;2023-08-06T01:30:52;5;5;
47081;PMS5003;33066;49.296;14.470;2023-08-06T01:33:19;4;3;
47081;PMS5003;33066;49.296;14.470;2023-08-06T01:35:43;5;4;
47081;PMS5003;33066;49.296;14.470;2023-08-06T01:38:08;7;5;
47081;PMS5003;33066;49.296;14.470;2023-08-06T01:40:33;3;3;
47081;PMS5003;33066;49.296;14.470;2023-08-06T01:42:58;4;4;
47081;PMS5003;33066;49.296;14.470;2023-08-06T01:45:23;3;3;
47081;PMS5003;33066;49.296;14.470;2023-08-06T01:47:48;3;3;
47081;PMS5003;33066;49.296;14.470;2023-08-06T01:50:13;3;3;
47081;PMS5003;33066;49.296;14.470;2023-08-06T01:52:38;3;3;
47081;PMS5003;33066;49.296;14.470;2023-08-06T01:55:04;3;3;
47081;PMS5003;33066;49.296;14.470;2023-08-06T01:57:29;3;3;
47081;PMS5003;33066;49.296;14.470;2023-08-06T01:59:54;4;4;
47081;PMS5003;33066;49.296;14.470;2023-08-06T02:02:19;3;3;
47081;PMS5003;33066;49.296;14.470;2023-08-06T02:04:44;6;4;
47081;PMS5003;33066;49.296;14.470;2023-08-06T02:07:09;4;4;
47081;PMS5003;33066;49.296;14.470;2023-08-06T02:09:34;6;6;
47081;PMS5003;33066;49.296;14.470;2023-08-06T02:11:59;4;4;
47081;PMS5003;33066;49.296;14.470;2023-08-06T02:14:24;3;3;
47081;PMS5003;33066;49.296;14.470;2023-08-06T02:16:49;7;4;
47081;PMS5003;33066;49.296;14.470;2023-08-06T02:19:14;4;4;
47081;PMS5003;33066;49.296;14.470;2023-08-06T02:21:39;6;6;
47081;PMS5003;33066;49.296;14.470;2023-08-06T02:24:04;2;2;
47081;PMS5003;33066;49.296;14.470;2023-08-06T02:26:29;4;4;
47081;PMS5003;33066;49.296;14.470;2023-08-06T02:28:54;6;4;
47081;PMS5003;33066;49.296;14.470;2023-08-06T02:31:20;4;4;
47081;PMS5003;33066;49.296;14.470;2023-08-06T02:33:44;7;4;
47081;PMS5003;33066;49.296;14.470;2023-08-06T02:36:10;4;4;
47081;PMS5003;33066;49.296;14.470;2023-08-06T02:38:35;4;4;
47081;PMS5003;33066;49.296;14.470;2023-08-06T02:41:01;4;4;
47081;PMS5003;33066;49.296;14.470;2023-08-06T02:43:25;5;4;
47081;PMS5003;33066;49.296;14.470;2023-08-06T02:45:50;5;3;
47081;PMS5003;33066;49.296;14.470;2023-08-06T02:48:15;4;2;
47081;PMS5003;33066;49.296;14.470;2023-08-06T02:50:40;5;4;
47081;PMS5003;33066;49.296;14.470;2023-08-06T02:53:05;3;3;
47081;PMS5003;33066;49.296;14.470;2023-08-06T02:55:30;3;3;
47081;PMS5003;33066;49.296;14.470;2023-08-06T02:57:56;5;5;
47081;PMS5003;33066;49.296;14.470;2023-08-06T03:00:21;4;4;
47081;PMS5003;33066;49.296;14.470;2023-08-06T03:02:46;4;4;
47081;PMS5003;33066;49.296;14.470;2023-08-06T03:05:11;3;3;
47081;PMS5003;33066;49.296;14.470;2023-08-06T03:07:36;4;4;
47081;PMS5003;33066;49.296;14.470;2023-08-06T03:10:01;3;3;
47081;PMS5003;33066;49.296;14.470;2023-08-06T03:13:00;4;4;
47081;PMS5003;33066;49.296;14.470;2023-08-06T03:15:25;2;2;
47081;PMS5003;33066;49.296;14.470;2023-08-06T03:17:50;4;4;
47081;PMS5003;33066;49.296;14.470;2023-08-06T03:20:16;4;4;
47081;PMS5003;33066;49.296;14.470;2023-08-06T03:22:41;4;4;
47081;PMS5003;33066;49.296;14.470;2023-08-06T03:25:06;5;4;
47081;PMS5003;33066;49.296;14.470;2023-08-06T03:27:31;3;3;
47081;PMS5003;33066;49.296;14.470;2023-08-06T03:29:56;4;3;
47081;PMS5003;33066;49.296;14.470;2023-08-06T03:32:21;4;4;
47081;PMS5003;33066;49.296;14.470;2023-08-06T03:34:46;9;6;
47081;PMS5003;33066;49.296;14.470;2023-08-06T03:37:11;3;3;
47081;PMS5003;33066;49.296;14.470;2023-08-06T03:39:36;4;4;
47081;PMS5003;33066;49.296;14.470;2023-08-06T03:42:02;4;4;
47081;PMS5003;33066;49.296;14.470;2023-08-06T03:44:27;2;2;
47081;PMS5003;33066;49.296;14.470;2023-08-06T03:46:52;3;3;
47081;PMS5003;33066;49.296;14.470;2023-08-06T03:49:17;2;2;
47081;PMS5003;33066;49.296;14.470;2023-08-06T03:51:42;2;2;
47081;PMS5003;33066;49.296;14.470;2023-08-06T03:54:07;2;2;
47081;PMS5003;33066;49.296;14.470;2023-08-06T03:56:32;2;2;
47081;PMS5003;33066;49.296;14.470;2023-08-06T03:58:57;3;3;
47081;PMS5003;33066;49.296;14.470;2023-08-06T04:01:22;3;3;
47081;PMS5003;33066;49.296;14.470;2023-08-06T04:03:47;5;4;
47081;PMS5003;33066;49.296;14.470;2023-08-06T04:06:12;4;3;
47081;PMS5003;33066;49.296;14.470;2023-08-06T04:08:37;5;3;
47081;PMS5003;33066;49.296;14.470;2023-08-06T04:11:02;4;4;
47081;PMS5003;33066;49.296;14.470;2023-08-06T04:13:27;4;3;
47081;PMS5003;33066;49.296;14.470;2023-08-06T04:15:53;4;4;
47081;PMS5003;33066;49.296;14.470;2023-08-06T04:18:18;3;3;
47081;PMS5003;33066;49.296;14.470;2023-08-06T04:20:43;4;4;
47081;PMS5003;33066;49.296;14.470;2023-08-06T04:23:08;3;3;
47081;PMS5003;33066;49.296;14.470;2023-08-06T04:25:33;6;6;
47081;PMS5003;33066;49.296;14.470;2023-08-06T04:27:58;4;4;
47081;PMS5003;33066;49.296;14.470;2023-08-06T04:30:23;5;3;
47081;PMS5003;33066;49.296;14.470;2023-08-06T04:32:49;3;3;
47081;PMS5003;33066;49.296;14.470;2023-08-06T04:35:13;4;4;
47081;PMS5003;33066;49.296;14.470;2023-08-06T04:37:38;3;3;
47081;PMS5003;33066;49.296;14.470;2023-08-06T04:40:03;3;3;
47081;PMS5003;33066;49.296;14.470;2023-08-06T04:42:28;5;3;
47081;PMS5003;33066;49.296;14.470;2023-08-06T04:44:54;6;5;
47081;PMS5003;33066;49.296;14.470;2023-08-06T04:47:18;3;3;
47081;PMS5003;33066;49.296;14.470;2023-08-06T04:49:43;5;5;
47081;PMS5003;33066;49.296;14.470;2023-08-06T04:52:08;5;5;
47081;PMS5003;33066;49.296;14.470;2023-08-06T04:54:33;6;6;
47081;PMS5003;33066;49.296;14.470;2023-08-06T04:56:58;4;4;
47081;PMS5003;33066;49.296;14.470;2023-08-06T04:59:23;4;3;
47081;PMS5003;33066;49.296;14.470;2023-08-06T05:01:48;4;4;
47081;PMS5003;33066;49.296;14.470;2023-08-06T05:04:14;5;5;
47081;PMS5003;33066;49.296;14.470;2023-08-06T05:06:39;5;5;
47081;PMS5003;33066;49.296;14.470;2023-08-06T05:09:04;4;4;
47081;PMS5003;33066;49.296;14.470;2023-08-06T05:11:29;5;5;
47081;PMS5003;33066;49.296;14.470;2023-08-06T05:13:54;5;4;
47081;PMS5003;33066;49.296;14.470;2023-08-06T05:16:19;5;4;
47081;PMS5003;33066;49.296;14.470;2023-08-06T05:18:44;4;4;
47081;PMS5003;33066;49.296;14.470;2023-08-06T05:21:09;5;5;
47081;PMS5003;33066;49.296;14.470;2023-08-06T05:23:35;5;5;
47081;PMS5003;33066;49.296;14.470;2023-08-06T05:26:00;6;6;
47081;PMS5003;33066;49.296;14.470;2023-08-06T05:28:25;5;5;
47081;PMS5003;33066;49.296;14.470;2023-08-06T05:30:50;6;5;
47081;PMS5003;33066;49.296;14.470;2023-08-06T05:33:15;5;5;
47081;PMS5003;33066;49.296;14.470;2023-08-06T05:35:40;4;4;
47081;PMS5003;33066;49.296;14.470;2023-08-06T05:38:05;5;5;
47081;PMS5003;33066;49.296;14.470;2023-08-06T05:40:30;6;5;
47081;PMS5003;33066;49.296;14.470;2023-08-06T05:42:55;6;6;
47081;PMS5003;33066;49.296;14.470;2023-08-06T05:45:20;7;6;
47081;PMS5003;33066;49.296;14.470;2023-08-06T05:47:45;6;6;
47081;PMS5003;33066;49.296;14.470;2023-08-06T05:50:10;7;7;
47081;PMS5003;33066;49.296;14.470;2023-08-06T05:52:35;9;7;
47081;PMS5003;33066;49.296;14.470;2023-08-06T05:55:00;9;6;
47081;PMS5003;33066;49.296;14.470;2023-08-06T05:57:26;22;19;
47081;PMS5003;33066;49.296;14.470;2023-08-06T05:59:51;13;13;
47081;PMS5003;33066;49.296;14.470;2023-08-06T06:02:16;11;11;
47081;PMS5003;33066;49.296;14.470;2023-08-06T06:04:41;7;6;
47081;PMS5003;33066;49.296;14.470;2023-08-06T06:07:07;8;8;
47081;PMS5003;33066;49.296;14.470;2023-08-06T06:09:33;6;6;
47081;PMS5003;33066;49.296;14.470;2023-08-06T06:11:58;8;8;
47081;PMS5003;33066;49.296;14.470;2023-08-06T06:14:23;17;17;
47081;PMS5003;33066;49.296;14.470;2023-08-06T06:16:49;10;9;
47081;PMS5003;33066;49.296;14.470;2023-08-06T06:19:14;9;9;
47081;PMS5003;33066;49.296;14.470;2023-08-06T06:21:39;10;10;
47081;PMS5003;33066;49.296;14.470;2023-08-06T06:24:05;7;7;
47081;PMS5003;33066;49.296;14.470;2023-08-06T06:26:29;11;9;
47081;PMS5003;33066;49.296;14.470;2023-08-06T06:28:54;7;6;
47081;PMS5003;33066;49.296;14.470;2023-08-06T06:31:19;8;7;
47081;PMS5003;33066;49.296;14.470;2023-08-06T06:33:45;7;7;
47081;PMS5003;33066;49.296;14.470;2023-08-06T06:36:10;4;4;
47081;PMS5003;33066;49.296;14.470;2023-08-06T06:38:36;6;6;
47081;PMS5003;33066;49.296;14.470;2023-08-06T06:41:00;7;7;
47081;PMS5003;33066;49.296;14.470;2023-08-06T06:43:25;7;6;
47081;PMS5003;33066;49.296;14.470;2023-08-06T06:45:52;6;6;
47081;PMS5003;33066;49.296;14.470;2023-08-06T06:48:16;5;5;
47081;PMS5003;33066;49.296;14.470;2023-08-06T06:50:41;8;8;
47081;PMS5003;33066;49.296;14.470;2023-08-06T06:53:06;10;8;
47081;PMS5003;33066;49.296;14.470;2023-08-06T06:55:31;6;5;
47081;PMS5003;33066;49.296;14.470;2023-08-06T06:57:56;6;5;
47081;PMS5003;33066;49.296;14.470;2023-08-06T07:00:21;9;9;
47081;PMS5003;33066;49.296;14.470;2023-08-06T07:02:46;9;9;
47081;PMS5003;33066;49.296;14.470;2023-08-06T07:05:11;7;7;
47081;PMS5003;33066;49.296;14.470;2023-08-06T07:07:37;6;6;
47081;PMS5003;33066;49.296;14.470;2023-08-06T07:10:02;6;6;
47081;PMS5003;33066;49.296;14.470;2023-08-06T07:12:27;8;8;
47081;PMS5003;33066;49.296;14.470;2023-08-06T07:14:52;6;5;
47081;PMS5003;33066;49.296;14.470;2023-08-06T07:17:17;5;5;
47081;PMS5003;33066;49.296;14.470;2023-08-06T07:19:42;6;6;
47081;PMS5003;33066;49.296;14.470;2023-08-06T07:22:07;6;6;
47081;PMS5003;33066;49.296;14.470;2023-08-06T07:24:33;4;4;
47081;PMS5003;33066;49.296;14.470;2023-08-06T07:27:00;7;5;
47081;PMS5003;33066;49.296;14.470;2023-08-06T07:29:23;6;6;
47081;PMS5003;33066;49.296;14.470;2023-08-06T07:31:48;5;5;
47081;PMS5003;33066;49.296;14.470;2023-08-06T07:34:13;8;6;
47081;PMS5003;33066;49.296;14.470;2023-08-06T07:36:38;7;6;
47081;PMS5003;33066;49.296;14.470;2023-08-06T07:39:04;6;5;
47081;PMS5003;33066;49.296;14.470;2023-08-06T07:41:28;5;3;
47081;PMS5003;33066;49.296;14.470;2023-08-06T07:43:53;5;4;
47081;PMS5003;33066;49.296;14.470;2023-08-06T07:46:19;5;5;
47081;PMS5003;33066;49.296;14.470;2023-08-06T07:48:44;5;5;
47081;PMS5003;33066;49.296;14.470;2023-08-06T07:51:09;6;4;
47081;PMS5003;33066;49.296;14.470;2023-08-06T07:53:34;4;4;
47081;PMS5003;33066;49.296;14.470;2023-08-06T07:55:59;8;7;
47081;PMS5003;33066;49.296;14.470;2023-08-06T07:58:26;2;2;
47081;PMS5003;33066;49.296;14.470;2023-08-06T08:00:50;5;3;
47081;PMS5003;33066;49.296;14.470;2023-08-06T08:03:15;5;5;
47081;PMS5003;33066;49.296;14.470;2023-08-06T08:05:39;9;8;
47081;PMS5003;33066;49.296;14.470;2023-08-06T08:08:05;5;5;
47081;PMS5003;33066;49.296;14.470;2023-08-06T08:10:31;6;4;
47081;PMS5003;33066;49.296;14.470;2023-08-06T08:12:55;6;5;
47081;PMS5003;33066;49.296;14.470;2023-08-06T08:15:21;5;5;
47081;PMS5003;33066;49.296;14.470;2023-08-06T08:17:46;5;4;
47081;PMS5003;33066;49.296;14.470;2023-08-06T08:20:11;5;5;
47081;PMS5003;33066;49.296;14.470;2023-08-06T08:22:37;6;5;
47081;PMS5003;33066;49.296;14.470;2023-08-06T08:25:01;4;4;
47081;PMS5003;33066;49.296;14.470;2023-08-06T08:27:26;4;4;
47081;PMS5003;33066;49.296;14.470;2023-08-06T08:29:51;4;4;
47081;PMS5003;33066;49.296;14.470;2023-08-06T08:32:16;6;6;
47081;PMS5003;33066;49.296;14.470;2023-08-06T08:34:42;5;4;
47081;PMS5003;33066;49.296;14.470;2023-08-06T08:37:07;10;8;
47081;PMS5003;33066;49.296;14.470;2023-08-06T08:39:33;8;7;
47081;PMS5003;33066;49.296;14.470;2023-08-06T08:41:58;6;6;
47081;PMS5003;33066;49.296;14.470;2023-08-06T08:44:23;7;6;
47081;PMS5003;33066;49.296;14.470;2023-08-06T08:46:48;5;4;
47081;PMS5003;33066;49.296;14.470;2023-08-06T08:49:14;6;4;
47081;PMS5003;33066;49.296;14.470;2023-08-06T08:51:40;7;6;
47081;PMS5003;33066;49.296;14.470;2023-08-06T08:54:05;4;4;
47081;PMS5003;33066;49.296;14.470;2023-08-06T08:56:29;3;3;
47081;PMS5003;33066;49.296;14.470;2023-08-06T08:58:54;6;4;
47081;PMS5003;33066;49.296;14.470;2023-08-06T09:01:19;4;4;
47081;PMS5003;33066;49.296;14.470;2023-08-06T09:03:44;5;5;
47081;PMS5003;33066;49.296;14.470;2023-08-06T09:06:10;8;6;
47081;PMS5003;33066;49.296;14.470;2023-08-06T09:08:36;5;5;
47081;PMS5003;33066;49.296;14.470;2023-08-06T09:11:00;4;4;
47081;PMS5003;33066;49.296;14.470;2023-08-06T09:13:25;4;4;
47081;PMS5003;33066;49.296;14.470;2023-08-06T09:15:50;5;5;
47081;PMS5003;33066;49.296;14.470;2023-08-06T09:18:15;4;4;
47081;PMS5003;33066;49.296;14.470;2023-08-06T09:20:40;4;4;
47081;PMS5003;33066;49.296;14.470;2023-08-06T09:23:07;4;4;
47081;PMS5003;33066;49.296;14.470;2023-08-06T09:25:30;4;4;
47081;PMS5003;33066;49.296;14.470;2023-08-06T09:27:56;3;3;
47081;PMS5003;33066;49.296;14.470;2023-08-06T09:30:29;7;4;
47081;PMS5003;33066;49.296;14.470;2023-08-06T09:32:47;5;5;
47081;PMS5003;33066;49.296;14.470;2023-08-06T09:35:16;5;4;
47081;PMS5003;33066;49.296;14.470;2023-08-06T09:37:36;6;4;
47081;PMS5003;33066;49.296;14.470;2023-08-06T09:40:01;3;3;
47081;PMS5003;33066;49.296;14.470;2023-08-06T09:42:28;7;6;
47081;PMS5003;33066;49.296;14.470;2023-08-06T09:44:53;4;4;
47081;PMS5003;33066;49.296;14.470;2023-08-06T09:47:18;9;7;
47081;PMS5003;33066;49.296;14.470;2023-08-06T09:49:43;6;4;
47081;PMS5003;33066;49.296;14.470;2023-08-06T09:52:07;6;6;
47081;PMS5003;33066;49.296;14.470;2023-08-06T09:54:32;5;5;
47081;PMS5003;33066;49.296;14.470;2023-08-06T09:56:57;6;3;
47081;PMS5003;33066;49.296;14.470;2023-08-06T09:59:22;6;5;
47081;PMS5003;33066;49.296;14.470;2023-08-06T10:01:47;4;4;
47081;PMS5003;33066;49.296;14.470;2023-08-06T10:04:12;3;3;
47081;PMS5003;33066;49.296;14.470;2023-08-06T10:06:38;6;6;
47081;PMS5003;33066;49.296;14.470;2023-08-06T10:09:03;6;3;
47081;PMS5003;33066;49.296;14.470;2023-08-06T10:11:27;3;3;
47081;PMS5003;33066;49.296;14.470;2023-08-06T10:13:53;4;4;
47081;PMS5003;33066;49.296;14.470;2023-08-06T10:16:17;5;5;
47081;PMS5003;33066;49.296;14.470;2023-08-06T10:18:42;4;4;
47081;PMS5003;33066;49.296;14.470;2023-08-06T10:21:07;5;5;
47081;PMS5003;33066;49.296;14.470;2023-08-06T10:23:33;5;4;
47081;PMS5003;33066;49.296;14.470;2023-08-06T10:25:59;5;5;
47081;PMS5003;33066;49.296;14.470;2023-08-06T10:28:22;3;2;
47081;PMS5003;33066;49.296;14.470;2023-08-06T10:30:47;4;4;
47081;PMS5003;33066;49.296;14.470;2023-08-06T10:33:12;5;4;
47081;PMS5003;33066;49.296;14.470;2023-08-06T10:35:40;4;4;
47081;PMS5003;33066;49.296;14.470;2023-08-06T10:38:04;2;2;
47081;PMS5003;33066;49.296;14.470;2023-08-06T10:40:28;4;3;
47081;PMS5003;33066;49.296;14.470;2023-08-06T10:42:53;5;5;
47081;PMS5003;33066;49.296;14.470;2023-08-06T10:45:18;6;5;
47081;PMS5003;33066;49.296;14.470;2023-08-06T10:47:43;0;0;
47081;PMS5003;33066;49.296;14.470;2023-08-06T10:50:13;2;2;
47081;PMS5003;33066;49.296;14.470;2023-08-06T10:52:33;6;3;
47081;PMS5003;33066;49.296;14.470;2023-08-06T10:54:58;3;2;
47081;PMS5003;33066;49.296;14.470;2023-08-06T10:57:23;2;2;
47081;PMS5003;33066;49.296;14.470;2023-08-06T10:59:48;3;3;
47081;PMS5003;33066;49.296;14.470;2023-08-06T11:02:13;4;3;
47081;PMS5003;33066;49.296;14.470;2023-08-06T11:04:38;4;4;
47081;PMS5003;33066;49.296;14.470;2023-08-06T11:07:03;3;3;
47081;PMS5003;33066;49.296;14.470;2023-08-06T11:09:30;3;3;
47081;PMS5003;33066;49.296;14.470;2023-08-06T11:11:53;4;3;
47081;PMS5003;33066;49.296;14.470;2023-08-06T11:14:18;2;2;
47081;PMS5003;33066;49.296;14.470;2023-08-06T11:16:44;2;2;
47081;PMS5003;33066;49.296;14.470;2023-08-06T11:19:09;2;2;
47081;PMS5003;33066;49.296;14.470;2023-08-06T11:21:34;2;2;
47081;PMS5003;33066;49.296;14.470;2023-08-06T11:23:59;2;2;
47081;PMS5003;33066;49.296;14.470;2023-08-06T11:26:26;5;3;
47081;PMS5003;33066;49.296;14.470;2023-08-06T11:28:49;4;3;
47081;PMS5003;33066;49.296;14.470;2023-08-06T11:31:19;1;1;
47081;PMS5003;33066;49.296;14.470;2023-08-06T11:33:40;5;4;
47081;PMS5003;33066;49.296;14.470;2023-08-06T11:36:04;5;4;
47081;PMS5003;33066;49.296;14.470;2023-08-06T11:38:29;2;2;
47081;PMS5003;33066;49.296;14.470;2023-08-06T11:40:54;2;2;
47081;PMS5003;33066;49.296;14.470;2023-08-06T11:43:19;6;4;
47081;PMS5003;33066;49.296;14.470;2023-08-06T11:45:44;2;2;
47081;PMS5003;33066;49.296;14.470;2023-08-06T11:48:09;3;3;
47081;PMS5003;33066;49.296;14.470;2023-08-06T11:50:36;4;4;
47081;PMS5003;33066;49.296;14.470;2023-08-06T11:53:00;4;4;
47081;PMS5003;33066;49.296;14.470;2023-08-06T11:55:24;3;3;
47081;PMS5003;33066;49.296;14.470;2023-08-06T11:57:49;3;3;
47081;PMS5003;33066;49.296;14.470;2023-08-06T12:00:14;3;3;
47081;PMS5003;33066;49.296;14.470;2023-08-06T12:02:40;3;3;
47081;PMS5003;33066;49.296;14.470;2023-08-06T12:05:05;3;2;
47081;PMS5003;33066;49.296;14.470;2023-08-06T12:07:30;4;3;
47081;PMS5003;33066;49.296;14.470;2023-08-06T12:09:54;3;3;
47081;PMS5003;33066;49.296;14.470;2023-08-06T12:12:19;2;2;
47081;PMS5003;33066;49.296;14.470;2023-08-06T12:14:45;2;2;
47081;PMS5003;33066;49.296;14.470;2023-08-06T12:17:10;4;4;
47081;PMS5003;33066;49.296;14.470;2023-08-06T12:19:36;2;2;
47081;PMS5003;33066;49.296;14.470;2023-08-06T12:22:00;7;4;
47081;PMS5003;33066;49.296;14.470;2023-08-06T12:24:25;3;3;
47081;PMS5003;33066;49.296;14.470;2023-08-06T12:26:50;3;3;
47081;PMS5003;33066;49.296;14.470;2023-08-06T12:29:16;6;4;
47081;PMS5003;33066;49.296;14.470;2023-08-06T12:31:41;6;3;
47081;PMS5003;33066;49.296;14.470;2023-08-06T12:34:06;4;1;
47081;PMS5003;33066;49.296;14.470;2023-08-06T12:36:32;3;2;
47081;PMS5003;33066;49.296;14.470;2023-08-06T12:38:58;3;2;
47081;PMS5003;33066;49.296;14.470;2023-08-06T12:41:24;4;4;
47081;PMS5003;33066;49.296;14.470;2023-08-06T12:43:50;6;4;
47081;PMS5003;33066;49.296;14.470;2023-08-06T12:46:16;3;3;
47081;PMS5003;33066;49.296;14.470;2023-08-06T12:48:42;3;3;
47081;PMS5003;33066;49.296;14.470;2023-08-06T12:51:07;3;2;
47081;PMS5003;33066;49.296;14.470;2023-08-06T12:53:34;1;1;
47081;PMS5003;33066;49.296;14.470;2023-08-06T12:55:59;3;3;
47081;PMS5003;33066;49.296;14.470;2023-08-06T12:58:25;7;6;
47081;PMS5003;33066;49.296;14.470;2023-08-06T13:00:51;3;3;
47081;PMS5003;33066;49.296;14.470;2023-08-06T13:03:17;3;3;
47081;PMS5003;33066;49.296;14.470;2023-08-06T13:05:42;4;4;
47081;PMS5003;33066;49.296;14.470;2023-08-06T13:08:08;5;5;
47081;PMS5003;33066;49.296;14.470;2023-08-06T13:10:34;6;3;
47081;PMS5003;33066;49.296;14.470;2023-08-06T13:13:00;4;4;
47081;PMS5003;33066;49.296;14.470;2023-08-06T13:15:25;4;3;
47081;PMS5003;33066;49.296;14.470;2023-08-06T13:17:51;4;4;
47081;PMS5003;33066;49.296;14.470;2023-08-06T13:20:16;4;4;
47081;PMS5003;33066;49.296;14.470;2023-08-06T13:22:43;2;2;
47081;PMS5003;33066;49.296;14.470;2023-08-06T13:25:06;3;3;
47081;PMS5003;33066;49.296;14.470;2023-08-06T13:27:32;2;2;
47081;PMS5003;33066;49.296;14.470;2023-08-06T13:29:56;2;2;
47081;PMS5003;33066;49.296;14.470;2023-08-06T13:32:21;2;1;
47081;PMS5003;33066;49.296;14.470;2023-08-06T13:34:46;1;1;
47081;PMS5003;33066;49.296;14.470;2023-08-06T13:37:11;1;1;
47081;PMS5003;33066;49.296;14.470;2023-08-06T13:39:37;2;1;
47081;PMS5003;33066;49.296;14.470;2023-08-06T13:42:02;0;0;
47081;PMS5003;33066;49.296;14.470;2023-08-06T13:44:28;3;3;
47081;PMS5003;33066;49.296;14.470;2023-08-06T13:46:52;1;1;
47081;PMS5003;33066;49.296;14.470;2023-08-06T13:49:17;2;2;
47081;PMS5003;33066;49.296;14.470;2023-08-06T13:51:42;2;2;
47081;PMS5003;33066;49.296;14.470;2023-08-06T13:54:07;2;2;
47081;PMS5003;33066;49.296;14.470;2023-08-06T13:56:34;0;0;
47081;PMS5003;33066;49.296;14.470;2023-08-06T13:58:58;2;2;
47081;PMS5003;33066;49.296;14.470;2023-08-06T14:01:25;2;2;
47081;PMS5003;33066;49.296;14.470;2023-08-06T14:03:50;3;1;
47081;PMS5003;33066;49.296;14.470;2023-08-06T14:06:17;2;2;
47081;PMS5003;33066;49.296;14.470;2023-08-06T14:08:42;2;0;
47081;PMS5003;33066;49.296;14.470;2023-08-06T14:11:07;2;2;
47081;PMS5003;33066;49.296;14.470;2023-08-06T14:13:33;2;1;
47081;PMS5003;33066;49.296;14.470;2023-08-06T14:15:59;1;1;
47081;PMS5003;33066;49.296;14.470;2023-08-06T14:18:25;2;2;
47081;PMS5003;33066;49.296;14.470;2023-08-06T14:20:52;1;1;
47081;PMS5003;33066;49.296;14.470;2023-08-06T14:23:16;1;1;
47081;PMS5003;33066;49.296;14.470;2023-08-06T14:25:42;2;1;
47081;PMS5003;33066;49.296;14.470;2023-08-06T14:28:08;0;0;
47081;PMS5003;33066;49.296;14.470;2023-08-06T14:30:34;0;0;
47081;PMS5003;33066;49.296;14.470;2023-08-06T14:32:59;0;0;
47081;PMS5003;33066;49.296;14.470;2023-08-06T14:35:25;1;1;
47081;PMS5003;33066;49.296;14.470;2023-08-06T14:37:51;0;0;
47081;PMS5003;33066;49.296;14.470;2023-08-06T14:40:17;1;1;
47081;PMS5003;33066;49.296;14.470;2023-08-06T14:42:43;3;2;
47081;PMS5003;33066;49.296;14.470;2023-08-06T14:45:09;2;1;
47081;PMS5003;33066;49.296;14.470;2023-08-06T14:47:34;1;0;
47081;PMS5003;33066;49.296;14.470;2023-08-06T14:50:00;0;0;
47081;PMS5003;33066;49.296;14.470;2023-08-06T14:52:26;0;0;
47081;PMS5003;33066;49.296;14.470;2023-08-06T14:54:52;0;0;
47081;PMS5003;33066;49.296;14.470;2023-08-06T14:57:18;0;0;
47081;PMS5003;33066;49.296;14.470;2023-08-06T14:59:43;0;0;
47081;PMS5003;33066;49.296;14.470;2023-08-06T15:02:09;0;0;
47081;PMS5003;33066;49.296;14.470;2023-08-06T15:04:35;0;0;
47081;PMS5003;33066;49.296;14.470;2023-08-06T15:07:01;0;0;
47081;PMS5003;33066;49.296;14.470;2023-08-06T15:09:27;0;0;
47081;PMS5003;33066;49.296;14.470;2023-08-06T15:11:53;0;0;
47081;PMS5003;33066;49.296;14.470;2023-08-06T15:14:18;0;0;
47081;PMS5003;33066;49.296;14.470;2023-08-06T15:16:46;0;0;
47081;PMS5003;33066;49.296;14.470;2023-08-06T15:19:10;0;0;
47081;PMS5003;33066;49.296;14.470;2023-08-06T15:21:37;0;0;
47081;PMS5003;33066;49.296;14.470;2023-08-06T15:24:02;1;0;
47081;PMS5003;33066;49.296;14.470;2023-08-06T15:26:27;0;0;
47081;PMS5003;33066;49.296;14.470;2023-08-06T15:28:53;0;0;
47081;PMS5003;33066;49.296;14.470;2023-08-06T15:31:19;1;0;
47081;PMS5003;33066;49.296;14.470;2023-08-06T15:33:45;0;0;
47081;PMS5003;33066;49.296;14.470;2023-08-06T15:36:12;0;0;
47081;PMS5003;33066;49.296;14.470;2023-08-06T15:38:36;1;0;
47081;PMS5003;33066;49.296;14.470;2023-08-06T15:41:02;0;0;
47081;PMS5003;33066;49.296;14.470;2023-08-06T15:43:28;0;0;
47081;PMS5003;33066;49.296;14.470;2023-08-06T15:45:54;0;0;
47081;PMS5003;33066;49.296;14.470;2023-08-06T15:48:20;0;0;
47081;PMS5003;33066;49.296;14.470;2023-08-06T15:50:47;0;0;
47081;PMS5003;33066;49.296;14.470;2023-08-06T15:53:12;0;0;
47081;PMS5003;33066;49.296;14.470;2023-08-06T15:55:38;0;0;
47081;PMS5003;33066;49.296;14.470;2023-08-06T15:58:03;0;0;
47081;PMS5003;33066;49.296;14.470;2023-08-06T16:00:30;0;0;
47081;PMS5003;33066;49.296;14.470;2023-08-06T16:02:56;2;2;
47081;PMS5003;33066;49.296;14.470;2023-08-06T16:05:22;1;1;
47081;PMS5003;33066;49.296;14.470;2023-08-06T16:07:49;1;1;
47081;PMS5003;33066;49.296;14.470;2023-08-06T16:10:13;1;0;
47081;PMS5003;33066;49.296;14.470;2023-08-06T16:12:40;1;1;
47081;PMS5003;33066;49.296;14.470;2023-08-06T16:15:05;0;0;
47081;PMS5003;33066;49.296;14.470;2023-08-06T16:17:30;0;0;
47081;PMS5003;33066;49.296;14.470;2023-08-06T16:19:56;0;0;